グアヤキル の空港の天気 - METARとTAF

グアヤキル空港 ( SEGU / GYE ) - エクアドル グアヤキル
飛行場実況気象(Metar)
観測時間07/04 22:00 ECT (07/05 03:00 UTC)
風向・風速南西 6m/s
視程10km以上
天気現象
少しの雲 雲底高度 300m
全天の8割程度の雲 雲底高度 910m
気温22℃
湿度83%
気圧1014hPa
METARSEGU 050300Z 22011KT 9999 FEW010 BKN030 22/19 Q1014 NOSIG RMK A2996
過去の天気等 Google飛行場航空写真 Wunderground天気予報

過去48時間のMETAR

飛行場予報(TAF)
発表時間: 7/04 17:45 ECT (7/04 22:45 UTC)
予報対象時間: 4日19時 ECT ~ 5日19時 ECT
風向・風速南西 5m/s
視程10km以上
全天の4割程度の雲 雲底高度 700m
全天の4割程度の雲 雲底高度 3050m
4日22時 ECT ~ 4日24時 ECT に徐々に
少しの雲 雲底高度 300m
全天の4割程度の雲 雲底高度 790m
全天の8割程度の雲 雲底高度 3050m
5日7時 ECT ~ 5日9時 ECT に徐々に
全天の4割程度の雲 雲底高度 790m
全天の4割程度の雲 雲底高度 3050m
5日13時 ECT ~ 5日15時 ECT に徐々に
風向・風速南南東 4m/s
全天の8割程度の雲 雲底高度 790m
全天の4割程度の雲 雲底高度 3050m
SEGU 042245Z 0500/0524 22010KT 9999 SCT023 SCT100
BECMG 0503/0505 FEW010 SCT026 BKN100
BECMG 0512/0514 SCT026 SCT100
BECMG 0518/0520 15007KT BKN026 SCT100 TX28/0520Z TN21/0510Z